createdAt,value
2022-08-01T00:01:33.719Z,8.48
2022-08-01T00:04:02.427Z,8.35
2022-08-01T00:06:30.856Z,7.80
2022-08-01T00:09:00.637Z,8.50
2022-08-01T00:11:29.056Z,9.27
2022-08-01T00:13:58.064Z,8.50
2022-08-01T00:16:26.499Z,9.10
2022-08-01T00:18:56.094Z,8.77
2022-08-01T00:21:24.613Z,8.55
2022-08-01T00:23:53.097Z,8.55
2022-08-01T00:26:22.948Z,8.52
2022-08-01T00:28:51.407Z,8.10
2022-08-01T00:31:19.770Z,7.78
2022-08-01T00:33:49.943Z,8.63
2022-08-01T00:36:18.347Z,8.48
2022-08-01T00:38:46.738Z,8.00
2022-08-01T00:41:15.226Z,8.20
2022-08-01T00:43:45.022Z,8.07
2022-08-01T00:46:13.441Z,8.13
2022-08-01T00:48:41.883Z,8.13
2022-08-01T00:51:10.368Z,8.63
2022-08-01T00:53:50.905Z,8.48
2022-08-01T00:56:21.835Z,9.23
2022-08-01T00:58:51.628Z,8.63
2022-08-01T01:01:21.656Z,8.27
2022-08-01T01:03:59.404Z,7.97
2022-08-01T01:06:33.134Z,8.75
2022-08-01T01:09:23.886Z,8.30
2022-08-01T01:12:00.226Z,8.35
2022-08-01T01:14:36.021Z,8.48
2022-08-01T01:17:05.591Z,8.18
2022-08-01T01:19:37.856Z,7.78
2022-08-01T01:22:35.059Z,8.15
2022-08-01T01:25:35.602Z,8.43
2022-08-01T01:28:12.320Z,8.27
2022-08-01T01:30:45.182Z,8.07
2022-08-01T01:33:14.582Z,7.63
2022-08-01T01:35:48.424Z,7.55
2022-08-01T01:38:19.532Z,8.20
2022-08-01T01:40:49.057Z,8.00
2022-08-01T01:43:18.312Z,7.65
2022-08-01T01:45:49.585Z,8.35
2022-08-01T01:48:22.571Z,7.68
2022-08-01T01:50:51.982Z,8.40
2022-08-01T01:53:23.734Z,8.02
2022-08-01T01:55:54.911Z,7.35
2022-08-01T01:58:23.665Z,7.78
2022-08-01T02:00:54.478Z,7.75
2022-08-01T02:03:23.847Z,7.93
2022-08-01T02:05:54.151Z,6.85
2022-08-01T02:08:24.243Z,5.65
2022-08-01T02:11:08.293Z,6.43
2022-08-01T02:13:38.956Z,5.60
2022-08-01T02:16:08.773Z,5.18
2022-08-01T02:18:37.223Z,4.95
2022-08-01T02:21:07.578Z,4.93
2022-08-01T02:23:38.310Z,5.07
2022-08-01T02:26:11.656Z,5.15
2022-08-01T02:28:45.766Z,5.32
2022-08-01T02:31:20.128Z,4.97
2022-08-01T02:33:54.426Z,5.55
2022-08-01T02:36:31.014Z,5.22
2022-08-01T02:39:01.361Z,5.60
2022-08-01T02:41:30.605Z,5.07
2022-08-01T02:44:03.010Z,5.70
2022-08-01T02:46:36.102Z,4.75
2022-08-01T02:49:06.034Z,4.82
2022-08-01T02:51:35.671Z,5.22
2022-08-01T02:54:06.008Z,5.05
2022-08-01T02:56:36.640Z,4.88
2022-08-01T02:59:08.016Z,4.40
2022-08-01T03:01:38.795Z,5.38
2022-08-01T03:04:10.741Z,4.65
2022-08-01T03:06:41.317Z,4.78
2022-08-01T03:09:13.923Z,5.10
2022-08-01T03:11:46.423Z,5.32
2022-08-01T03:14:15.724Z,5.57
2022-08-01T03:16:47.638Z,5.20
2022-08-01T03:19:16.721Z,5.68
2022-08-01T03:21:45.702Z,5.82
2022-08-01T03:24:14.875Z,6.15
2022-08-01T03:26:44.347Z,6.28
2022-08-01T03:29:16.545Z,5.97
2022-08-01T03:31:47.724Z,6.60
2022-08-01T03:34:16.409Z,7.00
2022-08-01T03:36:50.086Z,7.63
2022-08-01T03:39:20.262Z,7.20
2022-08-01T03:41:56.684Z,7.53
2022-08-01T03:44:28.409Z,7.57
2022-08-01T03:47:02.230Z,8.45
2022-08-01T03:49:33.488Z,7.95
2022-08-01T03:52:05.682Z,7.10
2022-08-01T03:54:35.812Z,6.68
2022-08-01T03:57:04.961Z,6.72
2022-08-01T03:59:34.249Z,7.13
2022-08-01T04:02:05.487Z,7.05
2022-08-01T04:04:34.239Z,6.50
2022-08-01T04:07:07.250Z,6.82
2022-08-01T04:09:35.736Z,6.63
2022-08-01T04:12:11.938Z,5.75
2022-08-01T04:14:40.998Z,6.22
2022-08-01T04:17:10.729Z,5.30
2022-08-01T04:19:39.087Z,5.40
2022-08-01T04:22:08.073Z,6.10
2022-08-01T04:24:37.806Z,5.75
2022-08-01T04:27:11.628Z,5.90
2022-08-01T04:29:41.044Z,5.78
2022-08-01T04:32:13.350Z,5.07
2022-08-01T04:34:43.305Z,5.32
2022-08-01T04:37:13.273Z,5.60
2022-08-01T04:39:50.280Z,5.03
2022-08-01T04:42:26.077Z,5.45
2022-08-01T04:45:01.709Z,5.28
2022-08-01T04:47:32.752Z,5.15
2022-08-01T04:50:01.642Z,4.97
2022-08-01T04:52:36.274Z,5.07
2022-08-01T04:55:05.212Z,5.35
2022-08-01T04:57:33.739Z,4.63
2022-08-01T05:00:03.530Z,5.40
2022-08-01T05:02:33.214Z,5.07
2022-08-01T05:05:01.641Z,4.20
2022-08-01T05:07:30.570Z,2.75
2022-08-01T05:09:58.962Z,2.30
2022-08-01T05:12:27.404Z,2.33
2022-08-01T05:14:55.745Z,2.65
2022-08-01T05:17:24.099Z,1.98
2022-08-01T05:19:53.845Z,2.10
2022-08-01T05:22:23.328Z,2.03
2022-08-01T05:24:51.678Z,1.98
2022-08-01T05:27:21.168Z,1.88
2022-08-01T05:29:49.985Z,2.25
2022-08-01T05:32:18.572Z,2.10
2022-08-01T05:34:46.998Z,1.83
2022-08-01T05:37:16.735Z,1.90
2022-08-01T05:39:45.106Z,1.60
2022-08-01T05:42:13.516Z,1.30
2022-08-01T05:44:42.081Z,1.88
2022-08-01T05:47:10.466Z,2.10
2022-08-01T05:49:38.873Z,1.80
2022-08-01T05:52:08.496Z,1.77
2022-08-01T05:54:38.613Z,2.00
2022-08-01T05:57:09.396Z,1.67
2022-08-01T05:59:39.576Z,1.70
2022-08-01T06:02:08.483Z,2.00
2022-08-01T06:04:37.321Z,1.80
2022-08-01T06:07:05.750Z,1.65
2022-08-01T06:09:34.172Z,2.60
2022-08-01T06:12:04.593Z,2.17
2022-08-01T06:14:33.120Z,2.20
2022-08-01T06:17:01.498Z,1.70
2022-08-01T06:19:29.857Z,1.70
2022-08-01T06:21:58.199Z,2.25
2022-08-01T06:24:36.656Z,2.00
2022-08-01T06:27:21.982Z,2.45
2022-08-01T06:29:54.710Z,2.65
2022-08-01T06:32:26.931Z,2.20
2022-08-01T06:34:56.531Z,2.17
2022-08-01T06:37:25.340Z,2.13
2022-08-01T06:39:53.983Z,1.70
2022-08-01T06:42:24.722Z,1.77
2022-08-01T06:44:53.137Z,2.00
2022-08-01T06:47:21.470Z,1.55
2022-08-01T06:49:49.822Z,1.55
2022-08-01T06:52:18.652Z,2.00
2022-08-01T06:54:47.461Z,1.75
2022-08-01T06:57:15.863Z,1.85
2022-08-01T06:59:54.141Z,1.88
2022-08-01T07:02:23.239Z,1.60
2022-08-01T07:04:51.662Z,1.88
2022-08-01T07:07:20.093Z,2.20
2022-08-01T07:09:48.696Z,1.90
2022-08-01T07:12:20.219Z,2.38
2022-08-01T07:14:49.924Z,2.58
2022-08-01T07:17:18.315Z,2.58
2022-08-01T07:19:48.995Z,2.55
2022-08-01T07:22:23.647Z,2.97
2022-08-01T07:24:54.518Z,2.33
2022-08-01T07:27:25.568Z,2.30
2022-08-01T07:29:56.045Z,2.63
2022-08-01T07:32:24.504Z,2.58
2022-08-01T07:34:53.102Z,2.15
2022-08-01T07:37:50.656Z,3.00
2022-08-01T07:40:11.159Z,2.50
2022-08-01T07:42:40.208Z,2.83
2022-08-01T07:45:11.185Z,2.63
2022-08-01T07:47:39.929Z,2.35
2022-08-01T07:50:09.545Z,2.15
2022-08-01T07:52:38.026Z,3.30
2022-08-01T07:55:07.628Z,2.33
2022-08-01T07:57:37.434Z,1.92
2022-08-01T08:00:09.418Z,1.88
2022-08-01T08:02:47.337Z,1.75
2022-08-01T08:05:16.190Z,2.00
2022-08-01T08:08:04.965Z,2.03
2022-08-01T08:10:33.411Z,1.88
2022-08-01T08:13:02.539Z,2.00
2022-08-01T08:15:31.199Z,1.98
2022-08-01T08:18:04.690Z,2.42
2022-08-01T08:20:33.284Z,2.30
2022-08-01T08:23:01.887Z,2.70
2022-08-01T08:25:30.769Z,1.80
2022-08-01T08:27:59.128Z,1.90
2022-08-01T08:30:27.517Z,2.17
2022-08-01T08:32:55.821Z,1.85
2022-08-01T08:35:40.365Z,2.35
2022-08-01T08:38:14.939Z,2.95
2022-08-01T08:40:43.371Z,2.30
2022-08-01T08:43:12.183Z,3.03
2022-08-01T08:45:58.651Z,2.75
2022-08-01T08:48:28.773Z,2.63
2022-08-01T08:50:59.467Z,2.33
2022-08-01T08:53:34.817Z,2.40
2022-08-01T08:56:04.244Z,2.50
2022-08-01T08:58:35.165Z,1.55
2022-08-01T09:01:03.659Z,1.08
2022-08-01T09:03:32.206Z,1.30
2022-08-01T09:06:01.947Z,1.30
2022-08-01T09:08:30.335Z,1.00
2022-08-01T09:10:58.778Z,1.02
2022-08-01T09:13:27.524Z,1.00
2022-08-01T09:15:59.658Z,1.20
2022-08-01T09:18:34.982Z,0.90
2022-08-01T09:21:19.542Z,0.95
2022-08-01T09:23:53.293Z,1.00
2022-08-01T09:26:24.210Z,1.27
2022-08-01T09:28:52.873Z,1.05
2022-08-01T09:31:21.765Z,1.42
2022-08-01T09:33:52.067Z,1.23
2022-08-01T09:36:22.764Z,0.95
2022-08-01T09:38:51.444Z,1.00
2022-08-01T09:41:37.519Z,1.50
2022-08-01T09:44:08.737Z,1.70
2022-08-01T09:46:37.337Z,1.42
2022-08-01T09:49:10.632Z,1.30
2022-08-01T09:51:59.816Z,1.00
2022-08-01T09:54:34.647Z,1.20
2022-08-01T09:57:14.510Z,1.30
2022-08-01T09:59:57.728Z,1.35
2022-08-01T10:02:32.664Z,1.20
2022-08-01T10:05:08.462Z,1.20
2022-08-01T10:07:57.999Z,1.00
2022-08-01T10:10:27.131Z,1.33
2022-08-01T10:12:59.213Z,0.95
2022-08-01T10:15:37.533Z,1.40
2022-08-01T10:18:16.462Z,0.90
2022-08-01T10:20:56.442Z,0.80
2022-08-01T10:23:40.020Z,1.02
2022-08-01T10:26:10.390Z,1.23
2022-08-01T10:28:39.705Z,1.13
2022-08-01T10:31:12.466Z,0.98
2022-08-01T10:33:50.794Z,1.10
2022-08-01T10:36:25.436Z,0.93
2022-08-01T10:38:57.117Z,0.90
2022-08-01T10:41:27.401Z,1.38
2022-08-01T10:43:56.394Z,1.10
2022-08-01T10:46:27.845Z,1.20
2022-08-01T10:49:00.394Z,1.20
2022-08-01T10:51:52.009Z,1.10
2022-08-01T10:54:20.116Z,1.10
2022-08-01T10:56:54.701Z,1.27
2022-08-01T10:59:49.115Z,1.20
2022-08-01T11:02:14.235Z,1.10
2022-08-01T11:04:53.457Z,1.17
2022-08-01T11:07:26.142Z,1.15
2022-08-01T11:10:14.526Z,1.17
2022-08-01T11:12:44.356Z,0.95
2022-08-01T11:15:29.069Z,1.35
2022-08-01T11:18:03.277Z,0.80
2022-08-01T11:20:39.569Z,0.90
2022-08-01T11:23:36.309Z,0.70
2022-08-01T11:26:29.325Z,0.70
2022-08-01T11:29:23.480Z,0.90
2022-08-01T11:31:53.684Z,0.88
2022-08-01T11:34:22.349Z,0.85
2022-08-01T11:36:59.554Z,0.93
2022-08-01T11:39:29.541Z,0.73
2022-08-01T11:42:20.675Z,1.08
2022-08-01T11:44:52.650Z,1.23
2022-08-01T11:47:32.421Z,1.10
2022-08-01T11:50:05.759Z,1.35
2022-08-01T11:52:36.683Z,0.65
2022-08-01T11:55:11.514Z,1.10
2022-08-01T11:57:41.720Z,1.08
2022-08-01T12:00:17.640Z,1.08
2022-08-01T12:02:47.365Z,0.90
2022-08-01T12:05:19.188Z,1.08
2022-08-01T12:07:49.464Z,0.80
2022-08-01T12:10:19.409Z,1.05
2022-08-01T12:12:50.520Z,0.90
2022-08-01T12:15:19.863Z,0.90
2022-08-01T12:17:57.854Z,1.40
2022-08-01T12:20:30.212Z,0.70
2022-08-01T12:23:00.126Z,1.00
2022-08-01T12:25:28.758Z,1.08
2022-08-01T12:28:02.552Z,1.05
2022-08-01T12:30:32.554Z,0.93
2022-08-01T12:33:01.245Z,1.15
2022-08-01T12:35:31.501Z,0.90
2022-08-01T12:38:02.175Z,1.13
2022-08-01T12:40:33.333Z,0.95
2022-08-01T12:43:05.459Z,0.70
2022-08-01T12:45:36.519Z,0.90
2022-08-01T12:48:08.379Z,1.13
2022-08-01T12:50:37.942Z,1.10
2022-08-01T12:53:07.073Z,0.77
2022-08-01T12:55:38.051Z,1.70
2022-08-01T12:58:33.534Z,0.50
2022-08-01T13:01:06.564Z,1.10
2022-08-01T13:03:35.272Z,0.63
2022-08-01T13:06:07.272Z,0.82
2022-08-01T13:08:38.861Z,0.70
2022-08-01T13:11:09.802Z,0.68
2022-08-01T13:13:43.009Z,1.00
2022-08-01T13:16:25.846Z,1.00
2022-08-01T13:19:00.715Z,0.55
2022-08-01T13:21:29.905Z,0.65
2022-08-01T13:24:18.290Z,0.70
2022-08-01T13:26:48.312Z,0.80
2022-08-01T13:29:19.747Z,0.90
2022-08-01T13:31:48.129Z,0.77
2022-08-01T13:34:17.647Z,0.57
2022-08-01T13:36:49.375Z,1.10
2022-08-01T13:39:35.569Z,1.20
2022-08-01T13:42:04.369Z,0.80
2022-08-01T13:44:34.440Z,0.95
2022-08-01T13:47:11.637Z,0.63
2022-08-01T13:49:44.472Z,1.15
2022-08-01T13:52:13.146Z,0.93
2022-08-01T13:54:41.553Z,0.65
2022-08-01T13:57:10.350Z,0.82
2022-08-01T13:59:40.112Z,0.93
2022-08-01T14:02:08.984Z,0.60
2022-08-01T14:04:38.832Z,0.95
2022-08-01T14:07:09.499Z,0.77
2022-08-01T14:09:57.850Z,1.15
2022-08-01T14:12:29.098Z,0.70
2022-08-01T14:14:58.772Z,0.77
2022-08-01T14:17:28.504Z,0.80
2022-08-01T14:20:00.269Z,0.70
2022-08-01T14:22:28.826Z,0.98
2022-08-01T14:25:00.945Z,0.70
2022-08-01T14:27:31.775Z,0.77
2022-08-01T14:30:04.385Z,0.82
2022-08-01T14:32:34.215Z,0.93
2022-08-01T14:35:02.933Z,0.88
2022-08-01T14:37:37.361Z,0.80
2022-08-01T14:40:09.850Z,0.95
2022-08-01T14:42:39.201Z,1.33
2022-08-01T14:45:10.721Z,1.00
2022-08-01T14:47:39.964Z,0.60
2022-08-01T14:50:10.038Z,1.13
2022-08-01T14:52:40.007Z,0.73
2022-08-01T14:55:10.565Z,0.80
2022-08-01T14:57:40.116Z,0.85
2022-08-01T15:00:12.699Z,0.90
2022-08-01T15:02:41.149Z,1.00
2022-08-01T15:05:10.435Z,0.80
2022-08-01T15:07:43.767Z,0.70
2022-08-01T15:10:22.521Z,0.85
2022-08-01T15:12:50.987Z,0.93
2022-08-01T15:15:20.846Z,1.33
2022-08-01T15:17:49.376Z,1.00
2022-08-01T15:20:17.863Z,0.95
2022-08-01T15:22:46.313Z,1.10
2022-08-01T15:25:14.715Z,0.80
2022-08-01T15:27:43.374Z,1.27
2022-08-01T15:30:12.352Z,1.00
2022-08-01T15:32:42.119Z,1.08
2022-08-01T15:35:11.956Z,0.85
2022-08-01T15:37:43.082Z,1.00
2022-08-01T15:40:12.946Z,1.38
2022-08-01T15:42:41.625Z,1.08
2022-08-01T15:45:25.573Z,1.40
2022-08-01T15:48:01.153Z,1.10
2022-08-01T15:50:29.510Z,1.30
2022-08-01T15:52:57.950Z,1.13
2022-08-01T15:55:26.356Z,1.15
2022-08-01T15:57:54.795Z,1.20
2022-08-01T16:00:23.230Z,1.25
2022-08-01T16:02:51.613Z,1.20
2022-08-01T16:05:21.516Z,1.15
2022-08-01T16:07:59.872Z,1.17
2022-08-01T16:10:30.707Z,1.23
2022-08-01T16:12:59.230Z,1.42
2022-08-01T16:15:36.818Z,0.90
2022-08-01T16:18:31.701Z,1.33
2022-08-01T16:21:01.806Z,1.17
2022-08-01T16:23:30.310Z,1.13
2022-08-01T16:25:58.686Z,1.08
2022-08-01T16:28:27.182Z,1.20
2022-08-01T16:31:11.421Z,1.42
2022-08-01T16:33:54.077Z,1.27
2022-08-01T16:36:25.992Z,1.45
2022-08-01T16:38:54.587Z,1.20
2022-08-01T16:41:23.090Z,1.10
2022-08-01T16:43:53.013Z,1.35
2022-08-01T16:46:24.796Z,1.17
2022-08-01T16:48:53.451Z,1.20
2022-08-01T16:51:21.930Z,1.38
2022-08-01T16:53:51.721Z,1.40
2022-08-01T16:56:20.196Z,1.27
2022-08-01T16:58:48.643Z,1.30
2022-08-01T17:02:01.297Z,1.27
2022-08-01T17:04:07.317Z,1.65
2022-08-01T17:06:35.925Z,1.27
2022-08-01T17:09:05.939Z,1.38
2022-08-01T17:11:34.428Z,1.13
2022-08-01T17:14:03.141Z,1.35
2022-08-01T17:16:31.572Z,1.30
2022-08-01T17:19:00.292Z,1.00
2022-08-01T17:21:28.857Z,1.02
2022-08-01T17:23:57.359Z,0.93
2022-08-01T17:26:27.157Z,0.70
2022-08-01T17:28:55.757Z,0.80
2022-08-01T17:31:24.324Z,1.23
2022-08-01T17:33:54.917Z,1.08
2022-08-01T17:36:23.505Z,1.20
2022-08-01T17:38:51.987Z,1.15
2022-08-01T17:41:20.431Z,1.10
2022-08-01T17:43:50.295Z,1.08
2022-08-01T17:46:18.769Z,1.02
2022-08-01T17:48:47.422Z,0.98
2022-08-01T17:51:20.765Z,1.23
2022-08-01T17:53:57.388Z,1.00
2022-08-01T17:56:26.621Z,1.20
2022-08-01T17:58:56.643Z,1.17
2022-08-01T18:01:26.826Z,0.85
2022-08-01T18:03:57.511Z,1.73
2022-08-01T18:06:26.715Z,1.20
2022-08-01T18:08:56.683Z,1.27
2022-08-01T18:11:28.259Z,1.20
2022-08-01T18:13:59.696Z,1.00
2022-08-01T18:16:28.286Z,1.60
2022-08-01T18:18:57.615Z,1.10
2022-08-01T18:21:26.099Z,0.90
2022-08-01T18:23:54.533Z,1.05
2022-08-01T18:26:23.018Z,1.30
2022-08-01T18:28:51.435Z,1.20
2022-08-01T18:31:21.172Z,1.20
2022-08-01T18:33:49.996Z,0.85
2022-08-01T18:36:32.730Z,1.48
2022-08-01T18:39:04.238Z,1.48
2022-08-01T18:41:33.792Z,1.00
2022-08-01T18:44:04.419Z,1.17
2022-08-01T18:46:38.077Z,0.95
2022-08-01T18:49:07.793Z,1.20
2022-08-01T18:51:40.408Z,1.75
2022-08-01T18:54:12.065Z,1.67
2022-08-01T18:56:40.430Z,1.27
2022-08-01T18:59:08.821Z,1.20
2022-08-01T19:01:39.629Z,1.15
2022-08-01T19:04:08.319Z,1.50
2022-08-01T19:06:36.811Z,1.30
2022-08-01T19:09:05.721Z,1.55
2022-08-01T19:11:35.017Z,1.60
2022-08-01T19:14:03.937Z,1.25
2022-08-01T19:16:32.799Z,1.67
2022-08-01T19:19:04.779Z,1.10
2022-08-01T19:21:33.465Z,1.75
2022-08-01T19:24:15.784Z,1.10
2022-08-01T19:26:48.057Z,0.80
2022-08-01T19:29:20.217Z,1.33
2022-08-01T19:31:49.474Z,1.13
2022-08-01T19:34:26.441Z,1.30
2022-08-01T19:36:57.619Z,1.23
2022-08-01T19:39:27.918Z,1.45
2022-08-01T19:41:57.376Z,1.20
2022-08-01T19:44:28.698Z,1.25
2022-08-01T19:46:57.122Z,1.50
2022-08-01T19:49:27.001Z,1.17
2022-08-01T19:52:01.212Z,1.27
2022-08-01T19:54:36.622Z,1.50
2022-08-01T19:57:09.649Z,1.70
2022-08-01T19:59:38.286Z,1.20
2022-08-01T20:02:06.806Z,0.97
2022-08-01T20:04:37.257Z,1.60
2022-08-01T20:07:06.129Z,1.20
2022-08-01T20:09:35.319Z,1.67
2022-08-01T20:12:03.911Z,1.10
2022-08-01T20:14:32.317Z,1.30
2022-08-01T20:17:01.244Z,1.60
2022-08-01T20:19:30.558Z,1.63
2022-08-01T20:22:03.825Z,1.60
2022-08-01T20:24:39.503Z,1.10
2022-08-01T20:27:10.496Z,1.80
2022-08-01T20:29:40.122Z,1.57
2022-08-01T20:32:08.999Z,1.80
2022-08-01T20:34:38.798Z,1.10
2022-08-01T20:37:12.843Z,1.07
2022-08-01T20:39:44.853Z,1.63
2022-08-01T20:42:13.932Z,1.60
2022-08-01T20:44:43.042Z,1.20
2022-08-01T20:47:11.724Z,1.70
2022-08-01T20:49:40.422Z,1.17
2022-08-01T20:52:11.965Z,1.43
2022-08-01T20:54:41.886Z,1.20
2022-08-01T20:57:16.159Z,1.20
2022-08-01T20:59:56.514Z,1.20
2022-08-01T21:02:32.339Z,1.30
2022-08-01T21:05:05.510Z,1.40
2022-08-01T21:07:38.039Z,1.37
2022-08-01T21:10:08.092Z,1.50
2022-08-01T21:12:44.836Z,1.50
2022-08-01T21:15:16.865Z,1.30
2022-08-01T21:17:48.105Z,1.33
2022-08-01T21:20:16.798Z,1.33
2022-08-01T21:22:54.138Z,1.57
2022-08-01T21:25:26.940Z,1.17
2022-08-01T21:27:56.894Z,1.17
2022-08-01T21:30:26.306Z,1.50
2022-08-01T21:32:55.112Z,1.80
2022-08-01T21:35:24.979Z,1.40
2022-08-01T21:37:55.222Z,1.17
2022-08-01T21:40:27.462Z,1.20
2022-08-01T21:42:56.346Z,2.00
2022-08-01T21:45:27.178Z,1.67
2022-08-01T21:47:57.471Z,1.40
2022-08-01T21:50:26.119Z,1.30
2022-08-01T21:53:05.704Z,1.40
2022-08-01T21:55:38.419Z,1.33
2022-08-01T21:58:30.404Z,1.60
2022-08-01T22:01:07.061Z,1.40
2022-08-01T22:03:40.749Z,1.47
2022-08-01T22:06:09.582Z,1.60
2022-08-01T22:08:44.778Z,1.57
2022-08-01T22:11:15.724Z,1.50
2022-08-01T22:13:44.171Z,1.17
2022-08-01T22:16:15.274Z,1.83
2022-08-01T22:18:43.869Z,1.63
2022-08-01T22:21:12.378Z,1.40
2022-08-01T22:23:42.723Z,1.70
2022-08-01T22:26:12.456Z,1.50
2022-08-01T22:28:41.675Z,1.60
2022-08-01T22:31:10.130Z,1.83
2022-08-01T22:33:40.316Z,2.13
2022-08-01T22:36:09.316Z,1.30
2022-08-01T22:38:37.711Z,1.40
2022-08-01T22:41:10.483Z,1.53
2022-08-01T22:43:43.119Z,1.20
2022-08-01T22:46:26.180Z,1.43
2022-08-01T22:49:01.314Z,1.30
2022-08-01T22:51:38.084Z,1.67
2022-08-01T22:54:09.781Z,1.50
2022-08-01T22:56:42.846Z,2.00
2022-08-01T22:59:15.192Z,1.80
2022-08-01T23:01:47.585Z,2.07
2022-08-01T23:04:27.654Z,1.70
2022-08-01T23:07:05.818Z,1.80
2022-08-01T23:09:53.486Z,1.90
2022-08-01T23:12:26.181Z,1.57
2022-08-01T23:14:55.739Z,1.60
2022-08-01T23:17:27.194Z,2.00
2022-08-01T23:19:57.589Z,1.30
2022-08-01T23:22:29.188Z,2.00
2022-08-01T23:25:04.964Z,1.53
2022-08-01T23:27:55.921Z,1.60
2022-08-01T23:30:27.747Z,1.50
2022-08-01T23:32:56.408Z,1.37
2022-08-01T23:35:25.211Z,1.63
2022-08-01T23:37:55.845Z,1.57
2022-08-01T23:40:30.739Z,1.40
2022-08-01T23:43:01.579Z,1.67
2022-08-01T23:46:02.823Z,1.50
2022-08-01T23:48:19.328Z,1.17
2022-08-01T23:50:47.835Z,1.50
2022-08-01T23:53:16.616Z,1.80
2022-08-01T23:55:45.085Z,1.40
2022-08-01T23:58:14.822Z,1.70
